sensor_id;sensor_type;location;lat;lon;timestamp;pressure;altitude;pressure_sealevel;temperature;humidity
2405;BME280;1213;43.206;27.922;2024-02-04T00:02:24;101604.81;;;5.14;100.00
2405;BME280;1213;43.206;27.922;2024-02-04T00:04:50;101606.56;;;5.13;100.00
2405;BME280;1213;43.206;27.922;2024-02-04T00:07:16;101608.28;;;5.14;100.00
2405;BME280;1213;43.206;27.922;2024-02-04T00:09:41;101609.09;;;5.16;100.00
2405;BME280;1213;43.206;27.922;2024-02-04T00:12:12;101613.50;;;5.14;100.00
2405;BME280;1213;43.206;27.922;2024-02-04T00:14:37;101609.31;;;5.09;100.00
2405;BME280;1213;43.206;27.922;2024-02-04T00:17:03;101612.78;;;5.09;100.00
2405;BME280;1213;43.206;27.922;2024-02-04T00:19:29;101611.88;;;5.10;100.00
2405;BME280;1213;43.206;27.922;2024-02-04T00:21:54;101614.44;;;5.12;100.00
2405;BME280;1213;43.206;27.922;2024-02-04T00:24:19;101611.06;;;5.08;100.00
2405;BME280;1213;43.206;27.922;2024-02-04T00:26:45;101611.38;;;4.97;100.00
2405;BME280;1213;43.206;27.922;2024-02-04T00:29:11;101611.34;;;4.99;100.00
2405;BME280;1213;43.206;27.922;2024-02-04T00:31:36;101608.75;;;4.99;100.00
2405;BME280;1213;43.206;27.922;2024-02-04T00:34:03;101613.06;;;5.00;100.00
2405;BME280;1213;43.206;27.922;2024-02-04T00:36:30;101613.19;;;4.95;100.00
2405;BME280;1213;43.206;27.922;2024-02-04T00:38:55;101607.28;;;4.89;100.00
2405;BME280;1213;43.206;27.922;2024-02-04T00:41:21;101616.22;;;4.80;100.00
2405;BME280;1213;43.206;27.922;2024-02-04T00:43:47;101610.91;;;4.85;100.00
2405;BME280;1213;43.206;27.922;2024-02-04T00:46:12;101609.91;;;4.89;100.00
2405;BME280;1213;43.206;27.922;2024-02-04T00:48:37;101608.09;;;4.91;100.00
2405;BME280;1213;43.206;27.922;2024-02-04T00:51:03;101610.53;;;4.97;100.00
2405;BME280;1213;43.206;27.922;2024-02-04T00:53:30;101595.69;;;5.00;100.00
2405;BME280;1213;43.206;27.922;2024-02-04T00:56:05;101579.47;;;5.19;100.00
2405;BME280;1213;43.206;27.922;2024-02-04T00:58:31;101578.44;;;5.24;100.00
2405;BME280;1213;43.206;27.922;2024-02-04T01:00:57;101579.16;;;5.29;100.00
2405;BME280;1213;43.206;27.922;2024-02-04T01:03:24;101587.47;;;5.41;100.00
2405;BME280;1213;43.206;27.922;2024-02-04T01:05:50;101579.78;;;5.38;100.00
2405;BME280;1213;43.206;27.922;2024-02-04T01:08:16;101576.25;;;5.39;100.00
2405;BME280;1213;43.206;27.922;2024-02-04T01:10:41;101576.75;;;5.50;100.00
2405;BME280;1213;43.206;27.922;2024-02-04T01:13:08;101576.97;;;5.70;100.00
2405;BME280;1213;43.206;27.922;2024-02-04T01:15:34;101580.81;;;5.85;100.00
2405;BME280;1213;43.206;27.922;2024-02-04T01:17:59;101578.91;;;5.92;100.00
2405;BME280;1213;43.206;27.922;2024-02-04T01:20:25;101588.28;;;5.97;100.00
2405;BME280;1213;43.206;27.922;2024-02-04T01:22:51;101584.66;;;6.01;100.00
2405;BME280;1213;43.206;27.922;2024-02-04T01:25:16;101589.13;;;5.98;100.00
2405;BME280;1213;43.206;27.922;2024-02-04T01:27:42;101579.53;;;5.98;100.00
2405;BME280;1213;43.206;27.922;2024-02-04T01:30:07;101576.28;;;5.92;100.00
2405;BME280;1213;43.206;27.922;2024-02-04T01:32:33;101575.38;;;5.93;100.00
2405;BME280;1213;43.206;27.922;2024-02-04T01:34:58;101566.72;;;5.92;100.00
2405;BME280;1213;43.206;27.922;2024-02-04T01:37:23;101567.41;;;5.97;100.00
2405;BME280;1213;43.206;27.922;2024-02-04T01:39:49;101565.41;;;6.04;100.00
2405;BME280;1213;43.206;27.922;2024-02-04T01:42:15;101557.25;;;6.15;100.00
2405;BME280;1213;43.206;27.922;2024-02-04T01:44:40;101551.75;;;6.22;100.00
2405;BME280;1213;43.206;27.922;2024-02-04T01:47:07;101559.13;;;6.34;100.00
2405;BME280;1213;43.206;27.922;2024-02-04T01:49:32;101542.59;;;6.35;100.00
2405;BME280;1213;43.206;27.922;2024-02-04T01:51:58;101539.72;;;6.42;100.00
2405;BME280;1213;43.206;27.922;2024-02-04T01:54:25;101532.66;;;6.45;100.00
2405;BME280;1213;43.206;27.922;2024-02-04T01:56:51;101524.25;;;6.60;100.00
2405;BME280;1213;43.206;27.922;2024-02-04T01:59:19;101522.41;;;6.62;100.00
2405;BME280;1213;43.206;27.922;2024-02-04T02:01:47;101519.53;;;6.70;100.00
2405;BME280;1213;43.206;27.922;2024-02-04T02:04:15;101497.16;;;6.63;100.00
2405;BME280;1213;43.206;27.922;2024-02-04T02:06:42;101506.38;;;6.73;100.00
2405;BME280;1213;43.206;27.922;2024-02-04T02:09:08;101511.28;;;6.81;100.00
2405;BME280;1213;43.206;27.922;2024-02-04T02:11:45;101504.53;;;6.75;100.00
2405;BME280;1213;43.206;27.922;2024-02-04T02:14:19;101496.81;;;6.72;100.00
2405;BME280;1213;43.206;27.922;2024-02-04T02:16:48;101502.56;;;6.58;100.00
2405;BME280;1213;43.206;27.922;2024-02-04T02:24:46;101518.53;;;6.27;100.00
2405;BME280;1213;43.206;27.922;2024-02-04T02:27:12;101521.97;;;6.28;100.00
2405;BME280;1213;43.206;27.922;2024-02-04T02:29:37;101522.00;;;6.26;100.00
2405;BME280;1213;43.206;27.922;2024-02-04T02:32:03;101524.06;;;6.18;100.00
2405;BME280;1213;43.206;27.922;2024-02-04T02:34:29;101534.66;;;6.14;100.00
2405;BME280;1213;43.206;27.922;2024-02-04T02:37:36;101528.13;;;6.02;100.00
2405;BME280;1213;43.206;27.922;2024-02-04T02:40:10;101526.53;;;5.98;100.00
2405;BME280;1213;43.206;27.922;2024-02-04T02:42:38;101530.19;;;5.92;100.00
2405;BME280;1213;43.206;27.922;2024-02-04T02:45:08;101526.84;;;5.87;100.00
2405;BME280;1213;43.206;27.922;2024-02-04T02:47:35;101524.16;;;5.90;100.00
2405;BME280;1213;43.206;27.922;2024-02-04T02:50:05;101528.56;;;5.88;100.00
2405;BME280;1213;43.206;27.922;2024-02-04T02:52:31;101522.31;;;5.94;100.00
2405;BME280;1213;43.206;27.922;2024-02-04T02:54:56;101531.78;;;5.96;100.00
2405;BME280;1213;43.206;27.922;2024-02-04T02:57:21;101535.84;;;6.05;100.00
2405;BME280;1213;43.206;27.922;2024-02-04T02:59:47;101531.25;;;6.11;100.00
2405;BME280;1213;43.206;27.922;2024-02-04T03:02:12;101531.38;;;6.08;100.00
2405;BME280;1213;43.206;27.922;2024-02-04T03:04:39;101540.19;;;6.04;100.00
2405;BME280;1213;43.206;27.922;2024-02-04T03:07:04;101541.06;;;6.05;100.00
2405;BME280;1213;43.206;27.922;2024-02-04T03:09:30;101540.19;;;6.04;100.00
2405;BME280;1213;43.206;27.922;2024-02-04T03:11:55;101534.94;;;6.06;100.00
2405;BME280;1213;43.206;27.922;2024-02-04T03:14:22;101532.28;;;6.07;100.00
2405;BME280;1213;43.206;27.922;2024-02-04T03:16:47;101529.47;;;6.12;100.00
2405;BME280;1213;43.206;27.922;2024-02-04T03:19:13;101541.41;;;6.19;100.00
2405;BME280;1213;43.206;27.922;2024-02-04T03:21:38;101536.81;;;6.26;100.00
2405;BME280;1213;43.206;27.922;2024-02-04T03:24:04;101531.38;;;6.32;100.00
2405;BME280;1213;43.206;27.922;2024-02-04T03:26:29;101525.16;;;6.36;100.00
2405;BME280;1213;43.206;27.922;2024-02-04T03:28:55;101531.88;;;6.43;100.00
2405;BME280;1213;43.206;27.922;2024-02-04T03:31:21;101525.59;;;6.47;100.00
2405;BME280;1213;43.206;27.922;2024-02-04T03:33:47;101527.25;;;6.50;100.00
2405;BME280;1213;43.206;27.922;2024-02-04T03:36:18;101522.03;;;6.50;100.00
2405;BME280;1213;43.206;27.922;2024-02-04T03:38:43;101515.84;;;6.52;100.00
2405;BME280;1213;43.206;27.922;2024-02-04T03:41:09;101513.19;;;6.54;100.00
2405;BME280;1213;43.206;27.922;2024-02-04T03:43:36;101535.66;;;6.58;100.00
2405;BME280;1213;43.206;27.922;2024-02-04T03:46:01;101511.28;;;6.57;100.00
2405;BME280;1213;43.206;27.922;2024-02-04T03:48:27;101517.25;;;6.61;100.00
2405;BME280;1213;43.206;27.922;2024-02-04T03:50:52;101516.97;;;6.68;100.00
2405;BME280;1213;43.206;27.922;2024-02-04T03:53:17;101516.13;;;6.68;100.00
2405;BME280;1213;43.206;27.922;2024-02-04T03:55:44;101504.91;;;6.66;100.00
2405;BME280;1213;43.206;27.922;2024-02-04T03:58:09;101508.44;;;6.65;100.00
2405;BME280;1213;43.206;27.922;2024-02-04T04:00:35;101520.31;;;6.72;100.00
2405;BME280;1213;43.206;27.922;2024-02-04T04:03:00;101511.47;;;6.76;100.00
2405;BME280;1213;43.206;27.922;2024-02-04T04:05:26;101505.44;;;6.74;100.00
2405;BME280;1213;43.206;27.922;2024-02-04T04:07:52;101493.78;;;6.83;100.00
2405;BME280;1213;43.206;27.922;2024-02-04T04:10:17;101479.75;;;6.85;100.00
2405;BME280;1213;43.206;27.922;2024-02-04T04:12:43;101480.53;;;6.87;100.00
2405;BME280;1213;43.206;27.922;2024-02-04T04:15:09;101487.19;;;6.96;100.00
2405;BME280;1213;43.206;27.922;2024-02-04T04:17:34;101492.50;;;6.93;100.00
2405;BME280;1213;43.206;27.922;2024-02-04T04:20:00;101489.91;;;6.93;100.00
2405;BME280;1213;43.206;27.922;2024-02-04T04:22:25;101487.34;;;6.91;100.00
2405;BME280;1213;43.206;27.922;2024-02-04T04:24:51;101486.28;;;6.97;100.00
2405;BME280;1213;43.206;27.922;2024-02-04T04:27:17;101494.03;;;6.99;100.00
2405;BME280;1213;43.206;27.922;2024-02-04T04:29:43;101486.81;;;7.05;100.00
2405;BME280;1213;43.206;27.922;2024-02-04T04:32:10;101499.81;;;7.07;100.00
2405;BME280;1213;43.206;27.922;2024-02-04T04:34:35;101501.44;;;7.09;100.00
2405;BME280;1213;43.206;27.922;2024-02-04T04:37:01;101490.94;;;7.11;100.00
2405;BME280;1213;43.206;27.922;2024-02-04T04:39:26;101494.34;;;7.13;100.00
2405;BME280;1213;43.206;27.922;2024-02-04T04:41:51;101481.34;;;7.11;100.00
2405;BME280;1213;43.206;27.922;2024-02-04T04:44:17;101484.66;;;7.15;100.00
2405;BME280;1213;43.206;27.922;2024-02-04T04:46:42;101488.06;;;7.17;100.00
2405;BME280;1213;43.206;27.922;2024-02-04T04:49:08;101496.03;;;7.14;100.00
2405;BME280;1213;43.206;27.922;2024-02-04T04:51:34;101499.50;;;7.14;100.00
2405;BME280;1213;43.206;27.922;2024-02-04T04:54:01;101502.84;;;7.18;100.00
2405;BME280;1213;43.206;27.922;2024-02-04T04:56:26;101504.56;;;7.19;100.00
2405;BME280;1213;43.206;27.922;2024-02-04T04:58:52;101503.75;;;7.17;100.00
2405;BME280;1213;43.206;27.922;2024-02-04T05:01:17;101504.56;;;7.19;100.00
2405;BME280;1213;43.206;27.922;2024-02-04T05:03:44;101507.28;;;7.16;100.00
2405;BME280;1213;43.206;27.922;2024-02-04T05:06:09;101506.44;;;7.15;100.00
2405;BME280;1213;43.206;27.922;2024-02-04T05:08:35;101501.19;;;7.15;100.00
2405;BME280;1213;43.206;27.922;2024-02-04T05:11:01;101498.78;;;7.11;100.00
2405;BME280;1213;43.206;27.922;2024-02-04T05:13:27;101498.72;;;7.12;100.00
2405;BME280;1213;43.206;27.922;2024-02-04T05:15:52;101496.75;;;7.17;100.00
2405;BME280;1213;43.206;27.922;2024-02-04T05:18:18;101498.28;;;7.23;100.00
2405;BME280;1213;43.206;27.922;2024-02-04T05:20:43;101505.19;;;7.24;100.00
2405;BME280;1213;43.206;27.922;2024-02-04T05:23:09;101518.03;;;7.30;100.00
2405;BME280;1213;43.206;27.922;2024-02-04T05:25:34;101512.69;;;7.33;100.00
2405;BME280;1213;43.206;27.922;2024-02-04T05:28:00;101507.31;;;7.36;100.00
2405;BME280;1213;43.206;27.922;2024-02-04T05:30:25;101494.84;;;7.43;100.00
2405;BME280;1213;43.206;27.922;2024-02-04T05:32:51;101493.78;;;7.47;100.00
2405;BME280;1213;43.206;27.922;2024-02-04T05:35:17;101490.81;;;7.56;100.00
2405;BME280;1213;43.206;27.922;2024-02-04T05:37:43;101485.31;;;7.62;100.00
2405;BME280;1213;43.206;27.922;2024-02-04T05:40:08;101488.59;;;7.67;100.00
2405;BME280;1213;43.206;27.922;2024-02-04T05:42:34;101488.25;;;7.75;100.00
2405;BME280;1213;43.206;27.922;2024-02-04T05:45:00;101487.34;;;7.76;100.00
2405;BME280;1213;43.206;27.922;2024-02-04T05:47:25;101484.38;;;7.84;100.00
2405;BME280;1213;43.206;27.922;2024-02-04T05:49:51;101482.63;;;7.84;100.00
2405;BME280;1213;43.206;27.922;2024-02-04T05:52:16;101492.97;;;7.87;100.00
2405;BME280;1213;43.206;27.922;2024-02-04T05:54:42;101491.22;;;7.88;100.00
2405;BME280;1213;43.206;27.922;2024-02-04T05:57:08;101498.91;;;7.91;100.00
2405;BME280;1213;43.206;27.922;2024-02-04T05:59:34;101498.72;;;7.95;100.00
2405;BME280;1213;43.206;27.922;2024-02-04T06:02:00;101496.81;;;7.99;100.00
2405;BME280;1213;43.206;27.922;2024-02-04T06:04:25;101492.63;;;7.95;100.00
2405;BME280;1213;43.206;27.922;2024-02-04T06:06:51;101501.97;;;8.00;100.00
2405;BME280;1213;43.206;27.922;2024-02-04T06:09:16;101502.81;;;8.01;100.00
2405;BME280;1213;43.206;27.922;2024-02-04T06:11:45;101501.63;;;8.08;100.00
2405;BME280;1213;43.206;27.922;2024-02-04T06:14:11;101498.66;;;8.16;100.00
2405;BME280;1213;43.206;27.922;2024-02-04T06:16:36;101489.94;;;8.17;100.00
2405;BME280;1213;43.206;27.922;2024-02-04T06:19:02;101486.59;;;8.13;100.00
2405;BME280;1213;43.206;27.922;2024-02-04T06:21:27;101494.50;;;8.12;100.00
2405;BME280;1213;43.206;27.922;2024-02-04T06:23:53;101499.81;;;8.10;100.00
2405;BME280;1213;43.206;27.922;2024-02-04T06:26:18;101503.91;;;8.16;100.00
2405;BME280;1213;43.206;27.922;2024-02-04T06:28:44;101511.22;;;8.09;100.00
2405;BME280;1213;43.206;27.922;2024-02-04T06:31:11;101514.78;;;8.06;100.00
2405;BME280;1213;43.206;27.922;2024-02-04T06:33:37;101506.41;;;8.19;100.00
2405;BME280;1213;43.206;27.922;2024-02-04T06:36:02;101508.59;;;8.28;100.00
2405;BME280;1213;43.206;27.922;2024-02-04T06:38:29;101512.00;;;8.30;100.00
2405;BME280;1213;43.206;27.922;2024-02-04T06:40:56;101512.81;;;8.32;100.00
2405;BME280;1213;43.206;27.922;2024-02-04T06:43:22;101512.69;;;8.35;100.00
2405;BME280;1213;43.206;27.922;2024-02-04T06:45:47;101518.22;;;8.27;100.00
2405;BME280;1213;43.206;27.922;2024-02-04T06:48:12;101521.31;;;8.37;100.00
2405;BME280;1213;43.206;27.922;2024-02-04T06:50:38;101519.66;;;8.34;100.00
2405;BME280;1213;43.206;27.922;2024-02-04T06:53:03;101519.41;;;8.41;100.00
2405;BME280;1213;43.206;27.922;2024-02-04T06:55:29;101504.47;;;8.43;100.00
2405;BME280;1213;43.206;27.922;2024-02-04T06:57:55;101500.66;;;8.50;100.00
2405;BME280;1213;43.206;27.922;2024-02-04T07:00:21;101502.34;;;8.51;100.00
2405;BME280;1213;43.206;27.922;2024-02-04T07:02:46;101497.13;;;8.51;100.00
2405;BME280;1213;43.206;27.922;2024-02-04T07:05:12;101497.53;;;8.60;100.00
2405;BME280;1213;43.206;27.922;2024-02-04T07:07:37;101491.91;;;8.70;100.00
2405;BME280;1213;43.206;27.922;2024-02-04T07:10:03;101495.06;;;8.76;100.00
2405;BME280;1213;43.206;27.922;2024-02-04T07:12:29;101495.50;;;8.86;100.00
2405;BME280;1213;43.206;27.922;2024-02-04T07:14:55;101488.81;;;8.98;100.00
2405;BME280;1213;43.206;27.922;2024-02-04T07:17:20;101491.94;;;9.23;100.00
2405;BME280;1213;43.206;27.922;2024-02-04T07:19:45;101498.34;;;9.35;100.00
2405;BME280;1213;43.206;27.922;2024-02-04T07:22:11;101498.28;;;9.54;100.00
2405;BME280;1213;43.206;27.922;2024-02-04T07:24:37;101494.81;;;9.70;100.00
2405;BME280;1213;43.206;27.922;2024-02-04T07:27:02;101505.44;;;9.85;100.00
2405;BME280;1213;43.206;27.922;2024-02-04T07:29:28;101505.03;;;10.10;100.00
2405;BME280;1213;43.206;27.922;2024-02-04T07:31:53;101505.19;;;10.24;100.00
2405;BME280;1213;43.206;27.922;2024-02-04T07:34:20;101494.25;;;10.32;100.00
2405;BME280;1213;43.206;27.922;2024-02-04T07:36:46;101496.13;;;10.30;100.00
2405;BME280;1213;43.206;27.922;2024-02-04T07:39:12;101476.44;;;10.21;100.00
2405;BME280;1213;43.206;27.922;2024-02-04T07:41:40;101482.69;;;10.18;100.00
2405;BME280;1213;43.206;27.922;2024-02-04T07:44:06;101486.56;;;10.11;100.00
2405;BME280;1213;43.206;27.922;2024-02-04T07:46:37;101484.78;;;10.12;100.00
2405;BME280;1213;43.206;27.922;2024-02-04T07:49:02;101476.66;;;10.16;100.00
2405;BME280;1213;43.206;27.922;2024-02-04T07:51:28;101487.16;;;10.16;100.00
2405;BME280;1213;43.206;27.922;2024-02-04T07:53:54;101497.22;;;10.25;100.00
2405;BME280;1213;43.206;27.922;2024-02-04T07:56:19;101497.81;;;10.31;100.00
2405;BME280;1213;43.206;27.922;2024-02-04T07:58:46;101515.38;;;10.30;100.00
2405;BME280;1213;43.206;27.922;2024-02-04T08:01:11;101503.84;;;10.33;100.00
2405;BME280;1213;43.206;27.922;2024-02-04T08:03:37;101508.53;;;10.43;100.00
2405;BME280;1213;43.206;27.922;2024-02-04T08:06:02;101514.69;;;10.42;100.00
2405;BME280;1213;43.206;27.922;2024-02-04T08:08:28;101502.06;;;10.49;100.00
2405;BME280;1213;43.206;27.922;2024-02-04T08:10:53;101515.81;;;10.54;100.00
2405;BME280;1213;43.206;27.922;2024-02-04T08:13:19;101513.09;;;10.55;100.00
2405;BME280;1213;43.206;27.922;2024-02-04T08:15:47;101512.44;;;10.52;100.00
2405;BME280;1213;43.206;27.922;2024-02-04T08:18:15;101514.97;;;10.53;100.00
2405;BME280;1213;43.206;27.922;2024-02-04T08:20:41;101507.84;;;10.55;100.00
2405;BME280;1213;43.206;27.922;2024-02-04T08:23:08;101501.94;;;10.52;100.00
2405;BME280;1213;43.206;27.922;2024-02-04T08:25:35;101503.19;;;10.61;100.00
2405;BME280;1213;43.206;27.922;2024-02-04T08:28:00;101491.94;;;10.59;100.00
2405;BME280;1213;43.206;27.922;2024-02-04T08:30:25;101491.16;;;10.56;100.00
2405;BME280;1213;43.206;27.922;2024-02-04T08:32:51;101486.91;;;10.54;100.00
2405;BME280;1213;43.206;27.922;2024-02-04T08:35:18;101493.22;;;10.67;100.00
2405;BME280;1213;43.206;27.922;2024-02-04T08:37:44;101487.94;;;10.67;100.00
2405;BME280;1213;43.206;27.922;2024-02-04T08:40:10;101474.81;;;10.83;100.00
2405;BME280;1213;43.206;27.922;2024-02-04T08:42:36;101474.78;;;10.99;100.00
2405;BME280;1213;43.206;27.922;2024-02-04T08:45:04;101479.84;;;11.02;100.00
2405;BME280;1213;43.206;27.922;2024-02-04T08:47:30;101484.63;;;11.11;100.00
2405;BME280;1213;43.206;27.922;2024-02-04T08:49:56;101477.63;;;11.10;100.00
2405;BME280;1213;43.206;27.922;2024-02-04T08:52:22;101470.16;;;11.18;100.00
2405;BME280;1213;43.206;27.922;2024-02-04T08:54:48;101474.66;;;11.16;100.00
2405;BME280;1213;43.206;27.922;2024-02-04T08:57:13;101469.63;;;10.97;100.00
2405;BME280;1213;43.206;27.922;2024-02-04T08:59:39;101470.91;;;10.90;100.00
2405;BME280;1213;43.206;27.922;2024-02-04T09:02:05;101471.03;;;11.03;100.00
2405;BME280;1213;43.206;27.922;2024-02-04T09:04:30;101466.91;;;10.99;100.00
2405;BME280;1213;43.206;27.922;2024-02-04T09:06:56;101468.16;;;11.07;100.00
2405;BME280;1213;43.206;27.922;2024-02-04T09:09:22;101468.16;;;11.07;100.00
2405;BME280;1213;43.206;27.922;2024-02-04T09:11:48;101469.72;;;11.26;100.00
2405;BME280;1213;43.206;27.922;2024-02-04T09:14:14;101478.13;;;11.17;100.00
2405;BME280;1213;43.206;27.922;2024-02-04T09:16:39;101473.06;;;11.14;100.00
2405;BME280;1213;43.206;27.922;2024-02-04T09:19:05;101470.34;;;11.15;100.00
2405;BME280;1213;43.206;27.922;2024-02-04T09:21:30;101465.53;;;11.07;100.00
2405;BME280;1213;43.206;27.922;2024-02-04T09:23:56;101450.25;;;11.14;100.00
2405;BME280;1213;43.206;27.922;2024-02-04T09:26:24;101444.78;;;11.17;100.00
2405;BME280;1213;43.206;27.922;2024-02-04T09:28:53;101447.31;;;11.04;100.00
2405;BME280;1213;43.206;27.922;2024-02-04T09:31:19;101452.38;;;11.07;100.00
2405;BME280;1213;43.206;27.922;2024-02-04T09:33:44;101441.75;;;11.09;100.00
2405;BME280;1213;43.206;27.922;2024-02-04T09:36:09;101443.88;;;11.02;100.00
2405;BME280;1213;43.206;27.922;2024-02-04T09:38:35;101439.06;;;10.95;100.00
2405;BME280;1213;43.206;27.922;2024-02-04T09:41:14;101434.00;;;10.92;100.00
2405;BME280;1213;43.206;27.922;2024-02-04T09:43:39;101441.03;;;10.91;100.00
2405;BME280;1213;43.206;27.922;2024-02-04T09:46:06;101435.28;;;10.84;100.00
2405;BME280;1213;43.206;27.922;2024-02-04T09:48:32;101428.84;;;10.90;100.00
2405;BME280;1213;43.206;27.922;2024-02-04T09:50:59;101422.50;;;11.08;100.00
2405;BME280;1213;43.206;27.922;2024-02-04T09:53:33;101425.13;;;11.38;100.00
2405;BME280;1213;43.206;27.922;2024-02-04T09:56:01;101410.91;;;11.85;100.00
2405;BME280;1213;43.206;27.922;2024-02-04T09:58:27;101410.53;;;12.20;100.00
2405;BME280;1213;43.206;27.922;2024-02-04T10:00:54;101401.31;;;12.13;100.00
2405;BME280;1213;43.206;27.922;2024-02-04T10:03:19;101391.47;;;12.43;100.00
2405;BME280;1213;43.206;27.922;2024-02-04T10:05:46;101389.03;;;13.07;100.00
2405;BME280;1213;43.206;27.922;2024-02-04T10:08:11;101384.13;;;13.15;100.00
2405;BME280;1213;43.206;27.922;2024-02-04T10:10:37;101382.28;;;13.55;100.00
2405;BME280;1213;43.206;27.922;2024-02-04T10:13:07;101387.78;;;13.40;100.00
2405;BME280;1213;43.206;27.922;2024-02-04T10:15:34;101379.44;;;13.46;100.00
2405;BME280;1213;43.206;27.922;2024-02-04T10:18:04;101371.81;;;13.67;100.00
2405;BME280;1213;43.206;27.922;2024-02-04T10:20:30;101380.75;;;14.02;100.00
2405;BME280;1213;43.206;27.922;2024-02-04T10:22:56;101376.56;;;14.36;100.00
2405;BME280;1213;43.206;27.922;2024-02-04T10:25:21;101397.06;;;14.33;100.00
2405;BME280;1213;43.206;27.922;2024-02-04T10:27:47;101379.03;;;14.51;100.00
2405;BME280;1213;43.206;27.922;2024-02-04T10:30:13;101372.97;;;14.85;100.00
2405;BME280;1213;43.206;27.922;2024-02-04T10:32:39;101362.31;;;14.98;100.00
2405;BME280;1213;43.206;27.922;2024-02-04T10:35:05;101363.63;;;14.68;100.00
2405;BME280;1213;43.206;27.922;2024-02-04T10:37:30;101369.53;;;14.35;100.00
2405;BME280;1213;43.206;27.922;2024-02-04T10:39:56;101377.53;;;14.83;100.00
2405;BME280;1213;43.206;27.922;2024-02-04T10:42:24;101359.94;;;15.17;100.00
2405;BME280;1213;43.206;27.922;2024-02-04T10:44:54;101365.75;;;15.22;100.00
2405;BME280;1213;43.206;27.922;2024-02-04T10:47:23;101366.00;;;14.84;100.00
2405;BME280;1213;43.206;27.922;2024-02-04T10:49:52;101352.75;;;14.36;100.00
2405;BME280;1213;43.206;27.922;2024-02-04T10:52:18;101354.69;;;14.58;100.00
2405;BME280;1213;43.206;27.922;2024-02-04T10:54:46;101340.59;;;14.58;100.00
2405;BME280;1213;43.206;27.922;2024-02-04T10:57:21;101347.34;;;14.38;100.00
2405;BME280;1213;43.206;27.922;2024-02-04T10:59:48;101349.47;;;14.33;100.00
2405;BME280;1213;43.206;27.922;2024-02-04T11:02:15;101345.03;;;14.33;100.00
2405;BME280;1213;43.206;27.922;2024-02-04T11:04:42;101351.44;;;14.18;100.00
2405;BME280;1213;43.206;27.922;2024-02-04T11:07:09;101353.59;;;14.00;100.00
2405;BME280;1213;43.206;27.922;2024-02-04T11:09:36;101345.38;;;13.92;100.00
2405;BME280;1213;43.206;27.922;2024-02-04T11:12:04;101344.13;;;13.85;100.00
2405;BME280;1213;43.206;27.922;2024-02-04T11:14:46;101341.31;;;13.63;100.00
2405;BME280;1213;43.206;27.922;2024-02-04T11:22:41;101321.47;;;14.78;100.00
2405;BME280;1213;43.206;27.922;2024-02-04T11:27:57;101332.75;;;14.69;100.00
2405;BME280;1213;43.206;27.922;2024-02-04T11:30:25;101323.56;;;14.62;100.00
2405;BME280;1213;43.206;27.922;2024-02-04T11:32:52;101330.44;;;14.28;100.00
2405;BME280;1213;43.206;27.922;2024-02-04T11:35:19;101343.84;;;14.13;100.00
2405;BME280;1213;43.206;27.922;2024-02-04T11:37:54;101338.97;;;13.83;100.00
2405;BME280;1213;43.206;27.922;2024-02-04T11:40:20;101331.03;;;13.83;100.00
2405;BME280;1213;43.206;27.922;2024-02-04T11:42:46;101338.97;;;13.71;100.00
2405;BME280;1213;43.206;27.922;2024-02-04T11:45:15;101334.63;;;13.57;100.00
2405;BME280;1213;43.206;27.922;2024-02-04T11:47:42;101351.78;;;13.39;100.00
2405;BME280;1213;43.206;27.922;2024-02-04T11:50:08;101347.22;;;13.28;100.00
2405;BME280;1213;43.206;27.922;2024-02-04T11:52:34;101348.28;;;13.38;100.00
2405;BME280;1213;43.206;27.922;2024-02-04T11:55:00;101352.19;;;13.32;100.00
2405;BME280;1213;43.206;27.922;2024-02-04T11:57:26;101348.78;;;13.43;100.00
2405;BME280;1213;43.206;27.922;2024-02-04T11:59:54;101340.13;;;13.67;100.00
2405;BME280;1213;43.206;27.922;2024-02-04T12:02:22;101351.44;;;13.69;100.00
2405;BME280;1213;43.206;27.922;2024-02-04T12:04:48;101350.34;;;13.84;100.00
2405;BME280;1213;43.206;27.922;2024-02-04T12:07:14;101351.94;;;13.86;100.00
2405;BME280;1213;43.206;27.922;2024-02-04T12:09:41;101360.69;;;14.00;100.00
2405;BME280;1213;43.206;27.922;2024-02-04T12:12:07;101352.22;;;13.95;100.00
2405;BME280;1213;43.206;27.922;2024-02-04T12:14:35;101357.81;;;14.03;100.00
2405;BME280;1213;43.206;27.922;2024-02-04T12:17:07;101344.88;;;14.24;100.00
2405;BME280;1213;43.206;27.922;2024-02-04T12:19:34;101336.25;;;13.96;100.00
2405;BME280;1213;43.206;27.922;2024-02-04T12:21:59;101341.53;;;14.09;100.00
2405;BME280;1213;43.206;27.922;2024-02-04T12:24:25;101342.13;;;13.76;100.00
2405;BME280;1213;43.206;27.922;2024-02-04T12:26:50;101337.59;;;13.78;100.00
2405;BME280;1213;43.206;27.922;2024-02-04T12:29:16;101342.75;;;13.79;100.00
2405;BME280;1213;43.206;27.922;2024-02-04T12:31:41;101336.81;;;13.88;100.00
2405;BME280;1213;43.206;27.922;2024-02-04T12:34:09;101328.69;;;13.92;100.00
2405;BME280;1213;43.206;27.922;2024-02-04T12:36:37;101322.44;;;13.93;100.00
2405;BME280;1213;43.206;27.922;2024-02-04T12:39:03;101315.25;;;13.95;100.00
2405;BME280;1213;43.206;27.922;2024-02-04T12:41:29;101312.34;;;14.10;100.00
2405;BME280;1213;43.206;27.922;2024-02-04T12:43:57;101309.94;;;14.07;100.00
2405;BME280;1213;43.206;27.922;2024-02-04T12:46:23;101306.03;;;14.00;100.00
2405;BME280;1213;43.206;27.922;2024-02-04T12:48:57;101303.16;;;14.03;100.00
2405;BME280;1213;43.206;27.922;2024-02-04T12:51:26;101299.13;;;13.74;100.00
2405;BME280;1213;43.206;27.922;2024-02-04T12:54:08;101309.50;;;13.64;100.00
2405;BME280;1213;43.206;27.922;2024-02-04T12:59:32;101315.25;;;13.45;100.00
2405;BME280;1213;43.206;27.922;2024-02-04T13:02:08;101316.59;;;13.51;100.00
2405;BME280;1213;43.206;27.922;2024-02-04T13:04:38;101308.47;;;13.54;100.00
2405;BME280;1213;43.206;27.922;2024-02-04T13:07:13;101315.09;;;13.59;100.00
2405;BME280;1213;43.206;27.922;2024-02-04T13:09:43;101307.09;;;13.61;100.00